Airfield :
LOGIN :

Register | Disclaimer

   EN    FR    IT 

 










Legend :    VFR   Marginal VFR   IFR   Intensive IFR   Very Intensive IFR
Visi :
Ceiling :
>= 8 km
>= 3000ft
5 to 8 km
1000 to 3000 ft
1500m to 5 km
500 to 1000 ft
800 to 1500m
200 to 500 ft
< 800m
< 200 ft
Symbols :   Thunderstorms  Fog  Heavy snow  Heavy precipitations  Wind > 20 kt
SIGMETs :     Misc.  Thunderstorms  Icing  Turbulence  Mountain Waves  Volcanic Ashes






- Airport Elevation : 2119 ft


LERL - Central

CURRENT METAR :
  • 221030Z 22006KT 160V300 9999 FEW029 SCT039 16/10 Q1014

EXPIRED METARs :
  • 221000Z 27003KT 240V310 9999 FEW026 SCT033 14/10 Q1014
  • 220930Z 25004KT 200V290 9999 FEW015 BKN027 15/10 Q1014
  • 220900Z 00000KT 9999 SCT024 BKN033 14/10 Q1014
  • 220830Z VRB02KT 9999 SCT017 BKN025 14/10 Q1014
  • 220800Z 00000KT 9999 FEW017 BKN025 12/09 Q1014
  • 220730Z 00000KT 9999 SCT019 BKN027 BKN032 12/09 Q1014

TAF TAF LERL
Valid from the 22 at 09:00 until the 23 at 09:00 UTC


220800Z 2209/2309 VRB04KT 9999 SCT020 BKN025 BKN030 TX16/2215Z TN07/2306Z
PROB40
TEMPO 2209/2218 3000 RA SHRA BKN014 SCT030TCU
PROB30
TEMPO 2209/2218 VRB15G25KT 3000 TSRA SCT025CB



MET'MAP, your aeronautical weather chart ! - Copyright ORBIFLY December 2007 - Disclaimer

ORBIFLY MET'MAP TEAM :

Programming & Development : Alexandra Zaïnal
Concept & original design : Baudouin d'Aumeries
Assistance for programming : Marc-Olivier Méhu
Technical & hardware support : Manuel Goepfert

Contact : metmap@orbifly.com




SOURCES & CREDITS :

   NOAA